Time;durP1;ratioP1;P1;durP2;ratioP2;P2;SDS_P1;SDS_P2;PMS_P1;PMS_P2;Temp;Humidity;BMP_temperature;BMP_pressure;BME280_temperature;BME280_humidity;BME280_pressure;Samples;Min_cycle;Max_cycle;Signal;HPM_P1;HPM_P2
2023/11/05 00:01:39;;;;;;;0.30;0.30;;;8.80;99.90;;;;;;4977647;28;20085;-79
2023/11/05 00:04:07;;;;;;;0.40;0.40;;;8.80;99.90;;;;;;4984777;28;20051;-79
2023/11/05 00:06:34;;;;;;;0.60;0.60;;;8.70;99.90;;;;;;4959243;28;21548;-80
2023/11/05 00:08:59;;;;;;;0.52;0.52;;;8.70;99.90;;;;;;5031352;28;21580;-80
2023/11/05 00:11:25;;;;;;;0.30;0.30;;;8.70;99.90;;;;;;4973242;28;20472;-80
2023/11/05 00:13:51;;;;;;;0.43;0.43;;;8.70;99.90;;;;;;4967852;28;20074;-79
2023/11/05 00:16:17;;;;;;;0.40;0.40;;;8.70;99.90;;;;;;4996805;28;20039;-80
2023/11/05 00:18:42;;;;;;;0.40;0.40;;;8.70;99.90;;;;;;4973876;28;20047;-79
2023/11/05 00:21:08;;;;;;;0.30;0.30;;;8.80;99.90;;;;;;4971016;28;20053;-78
2023/11/05 00:23:34;;;;;;;3.10;0.60;;;8.80;99.90;;;;;;4974837;28;20539;-81
2023/11/05 00:26:00;;;;;;;0.40;0.40;;;8.80;99.90;;;;;;4969170;28;20042;-81
2023/11/05 00:28:26;;;;;;;0.50;0.50;;;8.90;99.90;;;;;;4959983;28;20120;-81
2023/11/05 00:30:51;;;;;;;0.40;0.40;;;8.80;99.90;;;;;;4985080;28;20070;-82
2023/11/05 00:33:17;;;;;;;0.50;0.50;;;8.80;99.90;;;;;;4971237;28;20524;-82
2023/11/05 00:35:44;;;;;;;0.40;0.40;;;8.90;99.90;;;;;;4974699;28;20383;-80
2023/11/05 00:38:11;;;;;;;0.40;0.40;;;8.90;99.90;;;;;;5000960;28;20054;-81
2023/11/05 00:40:37;;;;;;;1.48;0.80;;;8.90;99.90;;;;;;4979208;28;20061;-83
2023/11/05 00:43:06;;;;;;;0.40;0.40;;;8.90;99.90;;;;;;4967552;28;20047;-82
2023/11/05 00:45:31;;;;;;;0.40;0.40;;;8.90;99.90;;;;;;4976055;28;20077;-80
2023/11/05 00:47:57;;;;;;;0.40;0.40;;;8.90;99.90;;;;;;5047017;28;20029;-79
2023/11/05 00:50:23;;;;;;;0.73;0.73;;;9.00;99.90;;;;;;4956814;28;20046;-79
2023/11/05 00:52:49;;;;;;;0.30;0.30;;;8.90;99.90;;;;;;4994014;28;20505;-80
2023/11/05 00:55:16;;;;;;;0.30;0.30;;;8.90;99.90;;;;;;4985846;28;20517;-82
2023/11/05 00:57:41;;;;;;;0.50;0.50;;;8.90;99.90;;;;;;5030626;28;20455;-81
2023/11/05 01:00:09;;;;;;;0.45;0.45;;;8.90;99.90;;;;;;5024355;28;20061;-80
2023/11/05 01:02:40;;;;;;;0.30;0.30;;;8.90;99.90;;;;;;4971096;28;20050;-78
2023/11/05 01:05:06;;;;;;;0.60;0.60;;;8.90;99.90;;;;;;4980842;28;20047;-81
2023/11/05 01:07:32;;;;;;;0.40;0.40;;;8.90;99.90;;;;;;4978689;28;20435;-80
2023/11/05 01:09:58;;;;;;;0.30;0.30;;;8.90;99.90;;;;;;4975711;28;20035;-83
2023/11/05 01:12:24;;;;;;;0.30;0.30;;;9.00;99.90;;;;;;5002031;28;20104;-81
2023/11/05 01:14:50;;;;;;;0.40;0.40;;;9.00;99.90;;;;;;4969783;28;20396;-81
2023/11/05 01:17:17;;;;;;;0.40;0.40;;;8.90;99.90;;;;;;4995908;28;20039;-82
2023/11/05 01:19:43;;;;;;;0.45;0.45;;;8.90;99.90;;;;;;4993294;28;20100;-82
2023/11/05 01:22:08;;;;;;;0.30;0.30;;;8.80;99.90;;;;;;4976036;28;20043;-80
2023/11/05 01:24:35;;;;;;;1.63;0.77;;;8.80;99.90;;;;;;4977337;28;20125;-80
2023/11/05 01:27:02;;;;;;;0.40;0.40;;;8.80;99.90;;;;;;4976949;28;20038;-82
2023/11/05 01:29:28;;;;;;;0.50;0.50;;;8.80;99.90;;;;;;4977686;28;20078;-82
2023/11/05 01:31:54;;;;;;;0.45;0.45;;;8.90;99.90;;;;;;4992011;28;20045;-80
2023/11/05 01:34:19;;;;;;;0.57;0.57;;;8.80;99.90;;;;;;4974003;28;20039;-81
2023/11/05 01:36:48;;;;;;;0.30;0.30;;;8.90;99.90;;;;;;4981615;28;20061;-80
2023/11/05 01:39:15;;;;;;;0.50;0.50;;;8.90;99.90;;;;;;4964247;28;20050;-80
2023/11/05 01:41:42;;;;;;;0.47;0.47;;;8.90;99.90;;;;;;4989121;28;20078;-82
2023/11/05 01:44:08;;;;;;;0.38;0.38;;;8.90;99.90;;;;;;5012002;28;20052;-84
2023/11/05 01:46:34;;;;;;;0.40;0.40;;;8.90;99.90;;;;;;4965075;28;20074;-80
2023/11/05 01:49:00;;;;;;;0.30;0.30;;;8.80;99.90;;;;;;4976837;28;20480;-80
2023/11/05 01:51:27;;;;;;;0.38;0.38;;;8.70;99.90;;;;;;4987951;28;20525;-79
2023/11/05 01:53:55;;;;;;;0.60;0.60;;;8.60;99.90;;;;;;4997531;28;20096;-82
2023/11/05 01:56:23;;;;;;;0.57;0.57;;;8.60;99.90;;;;;;4990262;28;20042;-80
2023/11/05 01:58:50;;;;;;;0.45;0.45;;;8.40;99.90;;;;;;4983073;28;20102;-83
2023/11/05 02:01:17;;;;;;;0.43;0.43;;;8.30;99.90;;;;;;4972490;28;20085;-80
2023/11/05 02:03:43;;;;;;;0.32;0.32;;;8.30;99.90;;;;;;4969047;28;20347;-80
2023/11/05 02:06:09;;;;;;;;;;;8.20;99.90;;;;;;4994709;28;20676;-82
2023/11/05 02:08:37;;;;;;;0.83;0.83;;;8.10;99.90;;;;;;4987541;28;19921;-78
2023/11/05 02:11:03;;;;;;;0.40;0.40;;;8.10;99.90;;;;;;4987362;28;20038;-78
2023/11/05 02:13:51;;;;;;;0.40;0.40;;;8.10;99.90;;;;;;4977838;28;20180;-80
2023/11/05 02:16:20;;;;;;;0.60;0.60;;;8.00;99.90;;;;;;5007914;28;20050;-82
2023/11/05 02:18:49;;;;;;;1.65;1.55;;;7.90;99.90;;;;;;5010253;28;20164;-81
2023/11/05 02:21:41;;;;;;;0.40;0.40;;;8.00;99.90;;;;;;5015441;28;20129;-79
2023/11/05 02:24:07;;;;;;;0.90;0.88;;;7.90;99.90;;;;;;4972011;28;20047;-77
2023/11/05 02:26:33;;;;;;;0.50;0.50;;;7.90;99.90;;;;;;4993552;28;20073;-80
2023/11/05 02:28:58;;;;;;;0.60;0.60;;;7.90;99.90;;;;;;4979709;28;20106;-77
2023/11/05 02:31:24;;;;;;;0.47;0.47;;;7.90;99.90;;;;;;4983934;28;20050;-79
2023/11/05 02:33:50;;;;;;;0.50;0.50;;;7.90;99.90;;;;;;4963498;28;20549;-79
2023/11/05 02:36:16;;;;;;;0.85;0.85;;;7.90;99.90;;;;;;4989577;28;20046;-77
2023/11/05 02:38:42;;;;;;;0.40;0.40;;;8.00;99.90;;;;;;4979810;28;20393;-77
2023/11/05 02:41:10;;;;;;;;;;;8.00;99.90;;;;;;4968336;28;20053;-79
2023/11/05 02:43:36;;;;;;;0.43;0.43;;;8.10;99.90;;;;;;5005083;28;19945;-78
2023/11/05 02:46:02;;;;;;;0.38;0.38;;;8.10;99.90;;;;;;4976822;28;21519;-79
2023/11/05 02:48:28;;;;;;;0.43;0.43;;;8.10;99.90;;;;;;4979064;28;20086;-78
2023/11/05 02:50:54;;;;;;;0.45;0.45;;;8.10;99.90;;;;;;4972662;28;20429;-80
2023/11/05 02:53:20;;;;;;;0.40;0.40;;;8.20;99.90;;;;;;5045970;28;20048;-77
2023/11/05 02:55:46;;;;;;;;;;;8.20;99.90;;;;;;5002899;28;20050;-79
2023/11/05 02:58:12;;;;;;;0.93;0.93;;;8.20;99.90;;;;;;4986568;28;20505;-78
2023/11/05 03:00:38;;;;;;;0.55;0.55;;;8.20;99.90;;;;;;4981836;28;20133;-78
2023/11/05 03:03:03;;;;;;;0.30;0.30;;;8.10;99.90;;;;;;4978589;28;20134;-79
2023/11/05 03:05:29;;;;;;;0.50;0.50;;;8.10;99.90;;;;;;4963142;28;20244;-77
2023/11/05 03:07:55;;;;;;;0.40;0.40;;;8.10;99.90;;;;;;4975459;28;20434;-79
2023/11/05 03:10:20;;;;;;;0.50;0.50;;;8.10;99.90;;;;;;4970143;28;20475;-79
2023/11/05 03:12:46;;;;;;;0.40;0.40;;;8.10;99.90;;;;;;4990248;28;20141;-80
2023/11/05 03:15:12;;;;;;;0.40;0.40;;;8.10;99.90;;;;;;4982688;28;20131;-80
2023/11/05 03:17:37;;;;;;;0.20;0.20;;;8.10;99.90;;;;;;4984858;28;20049;-79
2023/11/05 03:20:07;;;;;;;0.30;0.30;;;8.10;99.90;;;;;;4957890;28;20431;-79
2023/11/05 03:22:34;;;;;;;0.50;0.50;;;8.20;99.90;;;;;;4966649;28;20137;-80
2023/11/05 03:25:00;;;;;;;0.40;0.40;;;8.20;99.90;;;;;;4984762;28;20114;-80
2023/11/05 03:27:26;;;;;;;0.40;0.40;;;8.20;99.90;;;;;;4968183;28;20149;-82
2023/11/05 03:29:52;;;;;;;0.30;0.30;;;8.20;99.90;;;;;;4982942;28;20070;-79
2023/11/05 03:32:17;;;;;;;0.30;0.30;;;8.30;99.90;;;;;;4970354;28;20051;-80
2023/11/05 03:34:44;;;;;;;0.50;0.50;;;8.40;99.90;;;;;;5017630;28;20044;-83
2023/11/05 03:37:10;;;;;;;0.30;0.30;;;8.30;99.90;;;;;;4988889;28;20152;-81
2023/11/05 03:39:37;;;;;;;1.17;1.17;;;8.40;99.90;;;;;;5003994;28;20533;-82
2023/11/05 03:42:03;;;;;;;0.50;0.50;;;8.40;99.90;;;;;;4988611;28;20050;-79
2023/11/05 03:44:29;;;;;;;0.40;0.40;;;8.40;99.90;;;;;;5002307;28;20512;-79
2023/11/05 03:46:56;;;;;;;0.60;0.60;;;8.40;99.90;;;;;;5019571;28;20054;-78
2023/11/05 03:49:22;;;;;;;0.40;0.40;;;8.50;99.90;;;;;;5011396;28;20094;-83
2023/11/05 03:51:48;;;;;;;;;;;8.40;99.90;;;;;;4982691;28;20047;-80
2023/11/05 03:54:13;;;;;;;0.40;0.40;;;8.50;99.90;;;;;;4990765;28;19929;-81
2023/11/05 03:56:40;;;;;;;0.30;0.30;;;8.50;99.90;;;;;;4985924;28;20377;-79
2023/11/05 03:59:06;;;;;;;0.63;0.63;;;8.50;99.90;;;;;;4959010;28;20087;-79
2023/11/05 04:01:32;;;;;;;0.45;0.45;;;8.50;99.90;;;;;;4977793;28;20047;-79
2023/11/05 04:03:57;;;;;;;0.90;0.90;;;8.50;99.90;;;;;;4970115;28;20047;-83
2023/11/05 04:06:23;;;;;;;4.65;1.05;;;8.50;99.90;;;;;;4984618;28;20039;-81
2023/11/05 04:08:49;;;;;;;0.40;0.40;;;8.50;99.90;;;;;;4986954;28;20454;-81
2023/11/05 04:11:15;;;;;;;0.38;0.38;;;8.50;99.90;;;;;;5038006;28;20394;-83
2023/11/05 04:13:44;;;;;;;0.30;0.30;;;8.50;99.90;;;;;;4969333;28;20061;-79
2023/11/05 04:16:10;;;;;;;0.40;0.40;;;8.60;99.90;;;;;;4970446;28;20036;-80
2023/11/05 04:18:36;;;;;;;0.30;0.30;;;8.60;99.90;;;;;;4983080;28;20045;-82
2023/11/05 04:21:02;;;;;;;0.40;0.40;;;8.60;99.90;;;;;;4978506;28;20043;-80
2023/11/05 04:23:27;;;;;;;0.30;0.30;;;8.70;99.90;;;;;;4987925;28;20459;-80
2023/11/05 04:25:53;;;;;;;0.50;0.50;;;8.70;99.90;;;;;;4956918;28;20035;-80
2023/11/05 04:28:18;;;;;;;0.40;0.40;;;8.60;99.90;;;;;;4971440;28;20100;-81
2023/11/05 04:30:44;;;;;;;0.38;0.38;;;8.70;99.90;;;;;;4995115;28;20046;-78
2023/11/05 04:33:10;;;;;;;0.40;0.40;;;8.70;99.90;;;;;;4955919;28;20066;-79
2023/11/05 04:35:35;;;;;;;0.40;0.40;;;8.60;99.90;;;;;;4972264;28;20042;-77
2023/11/05 04:38:01;;;;;;;0.40;0.40;;;8.60;99.90;;;;;;4960373;28;20034;-79
2023/11/05 04:40:27;;;;;;;0.47;0.47;;;8.60;99.90;;;;;;4985530;28;20081;-80
2023/11/05 04:42:53;;;;;;;0.40;0.40;;;8.50;99.90;;;;;;4989349;28;20046;-78
2023/11/05 04:45:20;;;;;;;0.40;0.40;;;8.70;99.90;;;;;;4970531;28;20186;-80
2023/11/05 04:47:46;;;;;;;0.40;0.40;;;8.60;99.90;;;;;;4973513;28;20141;-82
2023/11/05 04:50:13;;;;;;;0.40;0.40;;;8.60;99.90;;;;;;4977513;28;20039;-79
2023/11/05 04:52:39;;;;;;;0.20;0.20;;;8.60;99.90;;;;;;4955703;28;20078;-80
2023/11/05 04:55:05;;;;;;;0.40;0.40;;;8.60;99.90;;;;;;4944924;28;20135;-79
2023/11/05 04:57:32;;;;;;;1.10;0.50;;;8.60;99.90;;;;;;4964387;28;20125;-81
2023/11/05 04:59:58;;;;;;;0.35;0.35;;;8.70;99.90;;;;;;4989910;28;20452;-80
2023/11/05 05:02:24;;;;;;;0.50;0.50;;;8.70;99.90;;;;;;4961469;28;20050;-82
2023/11/05 05:04:51;;;;;;;;;;;8.60;99.90;;;;;;4975753;28;20046;-82
2023/11/05 05:07:17;;;;;;;0.43;0.43;;;8.60;99.90;;;;;;4991639;28;19925;-84
2023/11/05 05:09:46;;;;;;;0.35;0.35;;;8.60;99.90;;;;;;4988963;28;20046;-82
2023/11/05 05:12:12;;;;;;;0.40;0.40;;;8.60;99.90;;;;;;4973366;28;20416;-80
2023/11/05 05:14:38;;;;;;;0.30;0.30;;;8.60;99.90;;;;;;4976624;28;20388;-84
2023/11/05 05:17:05;;;;;;;0.30;0.30;;;8.60;99.90;;;;;;4974122;28;20038;-85
2023/11/05 05:19:31;;;;;;;0.30;0.30;;;8.60;99.90;;;;;;4973017;28;20045;-83
2023/11/05 05:21:57;;;;;;;0.38;0.38;;;8.60;99.90;;;;;;4998559;28;20456;-80
2023/11/05 05:24:23;;;;;;;0.30;0.30;;;8.50;99.90;;;;;;5016127;28;20072;-82
2023/11/05 05:26:49;;;;;;;0.40;0.40;;;8.40;99.90;;;;;;4988417;28;20047;-78
2023/11/05 05:29:15;;;;;;;0.47;0.47;;;8.40;99.90;;;;;;4983579;28;20039;-78
2023/11/05 05:31:40;;;;;;;0.50;0.50;;;8.30;99.90;;;;;;4990124;28;20044;-80
2023/11/05 05:34:08;;;;;;;0.50;0.50;;;8.20;99.90;;;;;;4978928;28;20050;-79
2023/11/05 05:36:33;;;;;;;0.30;0.30;;;8.20;99.90;;;;;;4969404;28;20100;-80
2023/11/05 05:38:59;;;;;;;0.50;0.50;;;8.20;99.90;;;;;;4967856;28;20058;-81
2023/11/05 05:41:25;;;;;;;0.40;0.40;;;8.10;99.90;;;;;;4986797;28;20050;-82
2023/11/05 05:43:50;;;;;;;0.40;0.40;;;8.10;99.90;;;;;;4979266;28;20074;-79
2023/11/05 05:46:17;;;;;;;0.40;0.40;;;8.20;99.90;;;;;;4986676;28;20045;-82
2023/11/05 05:48:43;;;;;;;0.32;0.32;;;8.10;99.90;;;;;;4993751;28;20458;-80
2023/11/05 05:51:12;;;;;;;0.45;0.45;;;8.20;99.90;;;;;;4994111;28;20043;-79
2023/11/05 05:53:38;;;;;;;0.40;0.40;;;8.20;99.90;;;;;;4983751;28;20053;-83
2023/11/05 05:56:04;;;;;;;;;;;8.10;99.90;;;;;;4961398;28;20047;-79
2023/11/05 05:58:30;;;;;;;0.50;0.50;;;8.10;99.90;;;;;;4982230;28;20280;-82
2023/11/05 06:00:56;;;;;;;0.90;0.43;;;8.10;99.90;;;;;;4998501;28;20067;-80
2023/11/05 06:03:21;;;;;;;0.40;0.40;;;8.10;99.90;;;;;;4990851;28;20046;-83
2023/11/05 06:05:47;;;;;;;0.40;0.40;;;8.20;99.90;;;;;;4975809;28;20046;-79
2023/11/05 06:08:13;;;;;;;0.50;0.50;;;8.20;99.90;;;;;;4995504;28;20068;-81
2023/11/05 06:10:38;;;;;;;0.50;0.50;;;8.30;99.90;;;;;;4958400;28;20038;-81
2023/11/05 06:13:04;;;;;;;0.50;0.50;;;8.30;99.90;;;;;;4988932;28;20095;-78
2023/11/05 06:15:30;;;;;;;0.47;0.47;;;8.40;99.90;;;;;;4978233;28;20085;-81
2023/11/05 06:17:56;;;;;;;;;;;8.40;99.90;;;;;;4981213;28;20051;-80
2023/11/05 06:20:22;;;;;;;0.40;0.40;;;8.40;99.90;;;;;;4990730;28;19984;-79
2023/11/05 06:22:48;;;;;;;0.45;0.45;;;8.40;99.90;;;;;;4974564;28;20055;-78
2023/11/05 06:25:20;;;;;;;0.40;0.40;;;8.50;99.90;;;;;;4967380;28;20077;-80
2023/11/05 06:27:45;;;;;;;0.40;0.40;;;8.40;99.90;;;;;;4990464;28;20078;-80
2023/11/05 06:30:15;;;;;;;0.40;0.40;;;8.50;99.90;;;;;;4969377;28;20544;-78
2023/11/05 06:32:42;;;;;;;0.47;0.47;;;8.50;99.90;;;;;;4978086;28;20069;-80
2023/11/05 06:35:09;;;;;;;0.40;0.40;;;8.40;99.90;;;;;;4979795;28;20039;-81
2023/11/05 06:37:37;;;;;;;0.40;0.40;;;8.40;99.90;;;;;;4973340;28;20050;-80
2023/11/05 06:40:04;;;;;;;0.40;0.40;;;8.40;99.90;;;;;;4979192;28;20401;-80
2023/11/05 06:42:30;;;;;;;0.45;0.45;;;8.40;99.90;;;;;;4986544;28;20539;-79
2023/11/05 06:44:56;;;;;;;0.40;0.40;;;8.30;99.90;;;;;;4976020;28;20039;-79
2023/11/05 06:47:23;;;;;;;0.40;0.40;;;8.80;99.90;;;;;;4979969;28;20039;-82
2023/11/05 06:49:49;;;;;;;0.40;0.40;;;8.40;99.90;;;;;;4975486;28;20046;-81
2023/11/05 06:52:15;;;;;;;0.45;0.45;;;8.40;99.90;;;;;;4970438;28;20512;-82
2023/11/05 06:54:42;;;;;;;0.40;0.40;;;8.40;99.90;;;;;;4973222;28;20054;-80
2023/11/05 06:57:08;;;;;;;0.40;0.40;;;8.40;99.90;;;;;;4971711;28;20088;-81
2023/11/05 06:59:34;;;;;;;0.40;0.40;;;8.50;99.90;;;;;;4959889;28;20073;-79
2023/11/05 07:02:01;;;;;;;0.45;0.45;;;8.50;99.90;;;;;;4988029;28;20068;-80
2023/11/05 07:04:28;;;;;;;0.32;0.32;;;8.50;99.90;;;;;;4961684;28;20055;-79
2023/11/05 07:06:54;;;;;;;0.40;0.40;;;8.50;99.90;;;;;;4960865;28;20045;-81
2023/11/05 07:09:21;;;;;;;0.40;0.40;;;8.50;99.90;;;;;;4979001;28;20503;-81
2023/11/05 07:11:46;;;;;;;0.35;0.35;;;8.60;99.90;;;;;;4956523;28;20042;-82
2023/11/05 07:14:13;;;;;;;0.45;0.45;;;8.60;99.90;;;;;;5022093;28;20043;-82
2023/11/05 07:16:39;;;;;;;0.30;0.30;;;8.60;99.90;;;;;;4941182;28;20164;-80
2023/11/05 07:19:04;;;;;;;0.40;0.40;;;8.60;99.90;;;;;;5014060;28;20046;-82
2023/11/05 07:21:31;;;;;;;0.50;0.50;;;8.60;99.90;;;;;;5038067;28;20039;-81
2023/11/05 07:23:57;;;;;;;0.40;0.40;;;8.70;99.90;;;;;;4979692;28;20042;-82
2023/11/05 07:26:24;;;;;;;0.40;0.40;;;8.70;99.90;;;;;;4954364;28;20502;-81
2023/11/05 07:28:50;;;;;;;0.30;0.30;;;;;;;;;;4971295;28;20059;-79
2023/11/05 07:31:18;;;;;;;0.50;0.50;;;8.70;99.90;;;;;;4985253;28;20061;-82
2023/11/05 07:33:45;;;;;;;0.25;0.25;;;8.70;99.90;;;;;;4958507;28;20054;-81
2023/11/05 07:36:11;;;;;;;0.30;0.30;;;8.70;99.90;;;;;;4940888;28;20104;-82
2023/11/05 07:38:43;;;;;;;0.45;0.45;;;8.70;99.90;;;;;;4947555;28;20526;-79
2023/11/05 07:41:08;;;;;;;0.45;0.45;;;8.70;99.90;;;;;;4955810;28;20058;-78
2023/11/05 07:43:34;;;;;;;0.38;0.38;;;8.70;99.90;;;;;;4976109;28;20046;-83
2023/11/05 07:46:00;;;;;;;0.35;0.35;;;8.80;99.90;;;;;;4991714;28;20054;-83
2023/11/05 07:48:26;;;;;;;0.40;0.40;;;8.80;99.90;;;;;;5021743;28;20134;-82
2023/11/05 07:50:53;;;;;;;0.30;0.30;;;8.70;99.90;;;;;;4972138;28;20493;-83
2023/11/05 07:53:20;;;;;;;0.30;0.30;;;8.80;99.90;;;;;;4974261;28;20047;-80
2023/11/05 07:55:46;;;;;;;0.50;0.50;;;8.80;99.90;;;;;;5018986;28;20050;-82
2023/11/05 07:58:14;;;;;;;0.40;0.40;;;8.90;99.90;;;;;;4944060;28;20078;-82
2023/11/05 08:00:41;;;;;;;0.30;0.30;;;8.90;99.90;;;;;;4977438;28;20553;-79
2023/11/05 08:03:07;;;;;;;0.40;0.40;;;8.90;99.90;;;;;;4968114;28;20481;-82
2023/11/05 08:05:34;;;;;;;0.30;0.30;;;8.90;99.90;;;;;;4987586;28;20057;-79
2023/11/05 08:08:00;;;;;;;0.40;0.40;;;9.00;99.90;;;;;;4971100;28;20051;-82
2023/11/05 08:10:25;;;;;;;0.65;0.65;;;9.00;99.90;;;;;;5006045;28;20377;-79
2023/11/05 08:12:51;;;;;;;0.40;0.40;;;9.00;99.90;;;;;;5017030;28;20405;-79
2023/11/05 08:15:17;;;;;;;0.40;0.40;;;9.00;99.90;;;;;;4987768;28;20445;-82
2023/11/05 08:17:43;;;;;;;0.40;0.40;;;9.10;99.90;;;;;;5004542;28;20369;-78
2023/11/05 08:20:11;;;;;;;0.32;0.32;;;9.10;99.90;;;;;;4976259;28;20369;-81
2023/11/05 08:22:41;;;;;;;0.40;0.40;;;9.10;99.90;;;;;;4991633;28;20036;-80
2023/11/05 08:25:09;;;;;;;0.40;0.40;;;9.10;99.90;;;;;;5041613;28;20095;-79
2023/11/05 08:27:35;;;;;;;0.38;0.38;;;9.10;99.90;;;;;;4991956;28;20048;-80
2023/11/05 08:30:01;;;;;;;0.40;0.40;;;9.10;99.90;;;;;;5049789;28;20044;-80
2023/11/05 08:32:28;;;;;;;0.30;0.30;;;9.10;99.90;;;;;;4987111;28;20045;-81
2023/11/05 08:34:54;;;;;;;0.40;0.40;;;9.10;99.90;;;;;;5039671;28;20508;-81
2023/11/05 08:37:19;;;;;;;0.38;0.38;;;9.10;99.90;;;;;;4973065;28;20128;-80
2023/11/05 08:39:45;;;;;;;0.40;0.40;;;9.10;99.90;;;;;;4991506;28;20041;-79
2023/11/05 08:42:13;;;;;;;0.40;0.40;;;9.10;99.90;;;;;;5019957;28;20430;-89
2023/11/05 08:44:39;;;;;;;0.38;0.38;;;9.20;99.90;;;;;;4995410;28;20145;-85
2023/11/05 08:47:05;;;;;;;0.40;0.40;;;9.20;99.90;;;;;;5030949;28;20138;-84
2023/11/05 08:49:31;;;;;;;;;;;9.30;99.90;;;;;;5019649;28;20050;-84
2023/11/05 08:51:58;;;;;;;0.30;0.30;;;9.40;99.90;;;;;;4999896;28;20300;-85
2023/11/05 08:54:24;;;;;;;0.30;0.30;;;9.40;99.90;;;;;;4998082;28;20084;-83
2023/11/05 08:56:49;;;;;;;;;;;9.50;99.90;;;;;;5004696;28;20102;-86
2023/11/05 08:59:15;;;;;;;0.40;0.40;;;9.50;99.90;;;;;;5044216;28;19922;-85
2023/11/05 09:01:41;;;;;;;0.30;0.30;;;9.60;99.90;;;;;;5000951;28;20072;-86
2023/11/05 09:04:09;;;;;;;0.40;0.40;;;9.60;99.90;;;;;;5005376;28;20057;-83
2023/11/05 09:06:35;;;;;;;0.30;0.30;;;9.60;99.90;;;;;;5015150;28;20049;-80
2023/11/05 09:09:00;;;;;;;0.40;0.40;;;9.60;99.90;;;;;;5002733;28;20036;-80
2023/11/05 09:11:26;;;;;;;0.40;0.40;;;9.60;99.90;;;;;;5013905;28;20136;-80
2023/11/05 09:13:52;;;;;;;0.40;0.40;;;9.70;99.90;;;;;;5023199;28;20036;-80
2023/11/05 09:16:18;;;;;;;0.35;0.35;;;9.70;99.90;;;;;;4976724;28;20040;-80
2023/11/05 09:18:43;;;;;;;0.32;0.32;;;9.70;99.90;;;;;;5043038;28;20438;-80
2023/11/05 09:21:09;;;;;;;0.40;0.40;;;9.70;99.90;;;;;;5024953;28;20045;-82
2023/11/05 09:23:35;;;;;;;0.30;0.30;;;9.80;99.90;;;;;;5030556;28;20484;-81
2023/11/05 09:26:01;;;;;;;0.43;0.43;;;9.80;99.90;;;;;;5022853;28;20047;-81
2023/11/05 09:28:29;;;;;;;0.30;0.30;;;9.90;99.90;;;;;;5004691;28;20489;-81
2023/11/05 09:30:55;;;;;;;0.32;0.32;;;9.90;99.90;;;;;;4977329;28;20054;-82
2023/11/05 09:33:21;;;;;;;0.77;0.60;;;9.90;99.90;;;;;;5003474;28;20033;-81
2023/11/05 09:35:47;;;;;;;;;;;10.00;99.90;;;;;;5000951;28;20587;-81
2023/11/05 09:38:12;;;;;;;0.22;0.22;;;10.00;99.90;;;;;;5026611;28;19969;-81
2023/11/05 09:40:38;;;;;;;0.40;0.40;;;10.00;99.90;;;;;;4998972;28;20449;-80
2023/11/05 09:43:09;;;;;;;0.65;0.40;;;10.10;99.90;;;;;;5012636;28;20083;-80
2023/11/05 09:45:36;;;;;;;0.40;0.40;;;10.20;99.90;;;;;;4989268;28;20036;-81
2023/11/05 09:48:04;;;;;;;0.20;0.20;;;10.30;99.90;;;;;;5041008;28;20032;-81
2023/11/05 09:50:32;;;;;;;0.85;0.75;;;10.40;99.90;;;;;;5050161;28;20040;-81
2023/11/05 09:53:10;;;;;;;0.30;0.30;;;10.60;99.90;;;;;;4998398;28;20042;-80
2023/11/05 09:55:42;;;;;;;0.40;0.40;;;10.60;99.90;;;;;;5015457;28;20046;-80
2023/11/05 09:58:09;;;;;;;1.45;1.35;;;10.70;99.90;;;;;;5003763;28;20513;-80
2023/11/05 10:00:36;;;;;;;1.42;1.42;;;10.80;99.90;;;;;;5024650;28;20036;-81
2023/11/05 10:03:08;;;;;;;0.70;0.70;;;10.90;99.90;;;;;;5001124;28;20043;-81
2023/11/05 10:05:39;;;;;;;0.22;0.22;;;11.00;99.90;;;;;;5012354;28;20044;-82
2023/11/05 10:08:06;;;;;;;0.25;0.25;;;11.10;99.90;;;;;;5010736;28;20075;-81
2023/11/05 10:10:34;;;;;;;0.28;0.28;;;11.10;99.90;;;;;;5045429;28;20048;-81
2023/11/05 10:12:59;;;;;;;0.52;0.40;;;11.20;99.90;;;;;;4969652;28;20377;-80
2023/11/05 10:15:27;;;;;;;0.30;0.30;;;11.30;99.90;;;;;;5002715;28;20089;-81
2023/11/05 10:17:53;;;;;;;1.10;0.63;;;11.30;99.90;;;;;;5071422;28;20048;-80
2023/11/05 10:20:23;;;;;;;0.20;0.20;;;11.40;99.90;;;;;;5013587;28;20047;-80
2023/11/05 10:23:07;;;;;;;0.30;0.30;;;11.40;99.90;;;;;;4988259;28;20130;-80
2023/11/05 10:25:36;;;;;;;0.20;0.20;;;11.50;99.90;;;;;;4985321;28;20082;-80
2023/11/05 10:28:04;;;;;;;0.47;0.47;;;11.50;99.90;;;;;;4980725;28;20047;-80
2023/11/05 10:30:31;;;;;;;0.30;0.30;;;11.60;99.90;;;;;;5015027;28;20089;-81
2023/11/05 10:32:57;;;;;;;0.45;0.45;;;11.60;99.90;;;;;;5007224;28;20048;-81
2023/11/05 10:35:30;;;;;;;0.30;0.30;;;11.70;99.90;;;;;;5069038;28;20048;-81
2023/11/05 10:37:56;;;;;;;2.45;0.68;;;11.60;99.90;;;;;;5036562;28;20053;-81
2023/11/05 10:40:28;;;;;;;0.30;0.30;;;11.60;99.90;;;;;;4988553;28;20050;-80
2023/11/05 10:42:54;;;;;;;0.40;0.40;;;11.80;99.90;;;;;;4973376;28;20038;-79
2023/11/05 10:45:22;;;;;;;0.30;0.30;;;11.60;99.90;;;;;;4965933;28;20043;-80
2023/11/05 10:47:52;;;;;;;1.75;0.93;;;11.50;99.90;;;;;;5004843;28;20074;-79
2023/11/05 10:50:40;;;;;;;0.60;0.60;;;11.50;99.90;;;;;;4981699;28;20038;-81
2023/11/05 10:53:07;;;;;;;0.73;0.73;;;11.50;99.90;;;;;;4976406;28;20043;-82
2023/11/05 10:55:39;;;;;;;0.50;0.50;;;11.50;99.90;;;;;;5015686;28;20391;-80
2023/11/05 10:58:08;;;;;;;0.93;0.93;;;11.60;99.90;;;;;;5009043;28;20048;-81
2023/11/05 11:01:03;;;;;;;1.27;0.93;;;11.80;99.90;;;;;;5041087;28;20100;-81
2023/11/05 11:03:30;;;;;;;7.13;0.82;;;11.80;99.90;;;;;;4999630;28;20511;-79
2023/11/05 11:05:59;;;;;;;1.50;1.48;;;11.80;99.90;;;;;;5001506;28;20145;-79
2023/11/05 11:08:27;;;;;;;0.30;0.30;;;11.90;99.90;;;;;;4963225;28;20433;-82
2023/11/05 11:11:12;;;;;;;0.30;0.30;;;11.90;99.90;;;;;;4981561;28;20070;-79
2023/11/05 11:13:47;;;;;;;0.30;0.30;;;12.00;99.90;;;;;;5054919;28;20509;-82
2023/11/05 11:16:23;;;;;;;0.50;0.50;;;12.00;99.90;;;;;;5009718;28;20043;-80
2023/11/05 11:18:51;;;;;;;0.47;0.47;;;12.00;99.90;;;;;;4985432;28;20489;-76
2023/11/05 11:21:19;;;;;;;1.27;0.60;;;12.00;99.90;;;;;;4970043;28;20039;-82
2023/11/05 11:23:45;;;;;;;0.30;0.30;;;12.00;99.90;;;;;;4972077;28;20119;-81
2023/11/05 11:26:20;;;;;;;0.85;0.50;;;12.00;99.90;;;;;;4974372;28;20094;-79
2023/11/05 11:28:52;;;;;;;0.30;0.30;;;12.00;99.90;;;;;;4985387;28;20039;-82
2023/11/05 11:31:17;;;;;;;0.40;0.40;;;12.00;99.90;;;;;;4974412;28;20109;-82
2023/11/05 11:33:45;;;;;;;0.30;0.30;;;11.90;99.90;;;;;;4988270;28;20051;-77
2023/11/05 11:36:11;;;;;;;0.90;0.60;;;11.90;99.90;;;;;;4992873;28;20047;-78
2023/11/05 11:38:37;;;;;;;0.93;0.88;;;11.80;99.90;;;;;;4970589;28;20042;-80
2023/11/05 11:41:03;;;;;;;0.47;0.47;;;11.80;99.90;;;;;;4973923;28;20089;-80
2023/11/05 11:43:30;;;;;;;;;;;11.80;99.90;;;;;;5008705;28;20459;-80
2023/11/05 11:45:56;;;;;;;0.70;0.60;;;11.80;99.90;;;;;;5002453;28;19983;-81
2023/11/05 11:48:25;;;;;;;0.40;0.40;;;11.80;99.90;;;;;;5043323;28;20130;-78
2023/11/05 11:51:12;;;;;;;0.30;0.30;;;11.90;99.90;;;;;;4973690;28;20050;-80
2023/11/05 11:53:39;;;;;;;;;;;11.80;99.90;;;;;;4974854;28;20130;-84
2023/11/05 11:56:07;;;;;;;0.30;0.30;;;11.80;99.90;;;;;;4954601;28;19952;-81
2023/11/05 11:58:38;;;;;;;0.50;0.50;;;11.80;99.90;;;;;;4976452;28;20055;-82
2023/11/05 12:01:08;;;;;;;0.40;0.40;;;11.70;99.90;;;;;;5013625;28;20040;-79
2023/11/05 12:03:34;;;;;;;0.30;0.30;;;11.60;99.90;;;;;;4973910;28;20508;-80
2023/11/05 12:06:00;;;;;;;0.32;0.32;;;11.60;99.90;;;;;;5037339;28;20049;-82
2023/11/05 12:08:38;;;;;;;0.30;0.30;;;11.50;99.90;;;;;;4974556;28;20220;-78
2023/11/05 12:11:06;;;;;;;0.77;0.77;;;11.50;99.90;;;;;;4983838;28;20043;-78
2023/11/05 12:13:33;;;;;;;0.43;0.43;;;11.60;99.90;;;;;;4985168;28;20051;-81
2023/11/05 12:16:03;;;;;;;0.40;0.38;;;11.50;99.90;;;;;;5013801;28;20085;-80
2023/11/05 12:18:29;;;;;;;0.32;0.32;;;11.50;99.90;;;;;;5000831;28;20146;-79
2023/11/05 12:20:55;;;;;;;0.75;0.73;;;11.50;99.90;;;;;;4979949;28;20500;-78
2023/11/05 12:23:21;;;;;;;0.60;0.60;;;11.50;99.90;;;;;;5016476;28;20054;-82
2023/11/05 12:25:58;;;;;;;0.30;0.30;;;11.50;99.90;;;;;;4965599;28;20077;-77
2023/11/05 12:28:24;;;;;;;1.10;0.43;;;11.50;99.90;;;;;;4989253;28;20066;-82
2023/11/05 12:30:51;;;;;;;0.40;0.40;;;11.60;99.90;;;;;;5007174;28;20050;-82
2023/11/05 12:33:20;;;;;;;0.80;0.80;;;11.60;99.90;;;;;;4980413;28;20048;-82
2023/11/05 12:35:45;;;;;;;0.60;0.60;;;11.60;99.90;;;;;;5032621;28;20040;-79
2023/11/05 12:38:11;;;;;;;0.38;0.38;;;11.60;99.90;;;;;;4980621;28;20431;-79
2023/11/05 12:40:37;;;;;;;0.75;0.75;;;11.60;99.90;;;;;;5014986;28;20257;-81
2023/11/05 12:43:05;;;;;;;;;;;11.60;99.90;;;;;;4971600;28;20054;-79
2023/11/05 12:45:31;;;;;;;0.40;0.40;;;11.70;99.90;;;;;;4979719;28;20009;-78
2023/11/05 12:47:57;;;;;;;1.77;1.70;;;11.70;99.90;;;;;;4982584;28;20067;-80
2023/11/05 12:50:23;;;;;;;1.20;1.15;;;11.70;99.90;;;;;;5003623;28;20073;-80
2023/11/05 12:52:49;;;;;;;0.82;0.82;;;11.80;99.90;;;;;;4984037;28;20051;-79
2023/11/05 12:55:14;;;;;;;0.38;0.38;;;11.80;99.90;;;;;;4991559;28;20114;-81
2023/11/05 12:57:41;;;;;;;0.30;0.30;;;11.90;99.90;;;;;;4972402;28;20053;-79